sensor_id;sensor_type;location;lat;lon;timestamp;temperature;humidity
19007;DHT22;9636;47.382;8.480;2023-05-29T00:01:54;22.10;93.30
19007;DHT22;9636;47.382;8.480;2023-05-29T00:04:21;22.00;93.00
19007;DHT22;9636;47.382;8.480;2023-05-29T00:06:48;22.00;93.00
19007;DHT22;9636;47.382;8.480;2023-05-29T00:09:15;22.00;93.00
19007;DHT22;9636;47.382;8.480;2023-05-29T00:11:42;21.90;93.10
19007;DHT22;9636;47.382;8.480;2023-05-29T00:14:09;21.90;93.10
19007;DHT22;9636;47.382;8.480;2023-05-29T00:16:39;21.90;93.20
19007;DHT22;9636;47.382;8.480;2023-05-29T00:19:07;21.90;93.20
19007;DHT22;9636;47.382;8.480;2023-05-29T00:21:34;21.80;93.60
19007;DHT22;9636;47.382;8.480;2023-05-29T00:24:01;21.80;93.20
19007;DHT22;9636;47.382;8.480;2023-05-29T00:26:27;21.80;93.30
19007;DHT22;9636;47.382;8.480;2023-05-29T00:28:54;21.70;93.20
19007;DHT22;9636;47.382;8.480;2023-05-29T00:31:21;21.70;93.30
19007;DHT22;9636;47.382;8.480;2023-05-29T00:33:51;21.70;93.40
19007;DHT22;9636;47.382;8.480;2023-05-29T00:36:18;21.60;93.30
19007;DHT22;9636;47.382;8.480;2023-05-29T00:38:45;21.60;93.40
19007;DHT22;9636;47.382;8.480;2023-05-29T00:41:14;21.60;93.40
19007;DHT22;9636;47.382;8.480;2023-05-29T00:43:41;21.60;93.80
19007;DHT22;9636;47.382;8.480;2023-05-29T00:46:08;21.50;93.50
19007;DHT22;9636;47.382;8.480;2023-05-29T00:48:35;21.50;93.50
19007;DHT22;9636;47.382;8.480;2023-05-29T00:51:04;21.50;93.50
19007;DHT22;9636;47.382;8.480;2023-05-29T00:53:32;21.40;93.50
19007;DHT22;9636;47.382;8.480;2023-05-29T00:55:59;21.40;93.60
19007;DHT22;9636;47.382;8.480;2023-05-29T00:58:27;21.40;93.60
19007;DHT22;9636;47.382;8.480;2023-05-29T01:00:54;21.40;93.60
19007;DHT22;9636;47.382;8.480;2023-05-29T01:03:21;21.30;93.60
19007;DHT22;9636;47.382;8.480;2023-05-29T01:05:49;21.30;93.60
19007;DHT22;9636;47.382;8.480;2023-05-29T01:08:19;21.30;93.70
19007;DHT22;9636;47.382;8.480;2023-05-29T01:10:46;21.30;93.70
19007;DHT22;9636;47.382;8.480;2023-05-29T01:13:19;21.20;93.70
19007;DHT22;9636;47.382;8.480;2023-05-29T01:15:54;21.20;93.80
19007;DHT22;9636;47.382;8.480;2023-05-29T01:18:33;21.10;93.70
19007;DHT22;9636;47.382;8.480;2023-05-29T01:21:06;21.10;93.80
19007;DHT22;9636;47.382;8.480;2023-05-29T01:23:51;21.10;93.80
19007;DHT22;9636;47.382;8.480;2023-05-29T01:26:46;21.10;93.80
19007;DHT22;9636;47.382;8.480;2023-05-29T01:29:15;21.10;93.80
19007;DHT22;9636;47.382;8.480;2023-05-29T01:31:44;21.00;93.80
19007;DHT22;9636;47.382;8.480;2023-05-29T01:34:12;21.00;93.90
19007;DHT22;9636;47.382;8.480;2023-05-29T01:36:39;21.00;93.90
19007;DHT22;9636;47.382;8.480;2023-05-29T01:39:06;21.00;93.90
19007;DHT22;9636;47.382;8.480;2023-05-29T01:41:34;20.90;93.90
19007;DHT22;9636;47.382;8.480;2023-05-29T01:44:06;20.90;93.90
19007;DHT22;9636;47.382;8.480;2023-05-29T01:46:35;20.90;94.00
19007;DHT22;9636;47.382;8.480;2023-05-29T01:49:03;20.90;94.00
19007;DHT22;9636;47.382;8.480;2023-05-29T01:51:30;20.80;94.00
19007;DHT22;9636;47.382;8.480;2023-05-29T01:53:58;20.80;94.00
19007;DHT22;9636;47.382;8.480;2023-05-29T01:56:26;20.80;94.00
19007;DHT22;9636;47.382;8.480;2023-05-29T01:58:54;20.70;94.00
19007;DHT22;9636;47.382;8.480;2023-05-29T02:01:23;20.80;94.00
19007;DHT22;9636;47.382;8.480;2023-05-29T02:03:51;20.70;94.10
19007;DHT22;9636;47.382;8.480;2023-05-29T02:06:18;20.70;94.10
19007;DHT22;9636;47.382;8.480;2023-05-29T02:08:45;20.70;94.10
19007;DHT22;9636;47.382;8.480;2023-05-29T02:11:12;20.60;94.10
19007;DHT22;9636;47.382;8.480;2023-05-29T02:13:39;20.60;94.10
19007;DHT22;9636;47.382;8.480;2023-05-29T02:16:06;20.60;94.10
19007;DHT22;9636;47.382;8.480;2023-05-29T02:18:34;20.60;94.10
19007;DHT22;9636;47.382;8.480;2023-05-29T02:21:01;20.60;94.10
19007;DHT22;9636;47.382;8.480;2023-05-29T02:23:28;20.60;94.20
19007;DHT22;9636;47.382;8.480;2023-05-29T02:25:55;20.50;94.10
19007;DHT22;9636;47.382;8.480;2023-05-29T02:28:21;20.50;94.10
19007;DHT22;9636;47.382;8.480;2023-05-29T02:30:48;20.50;94.20
19007;DHT22;9636;47.382;8.480;2023-05-29T02:33:15;20.40;94.20
19007;DHT22;9636;47.382;8.480;2023-05-29T02:35:43;20.40;94.20
19007;DHT22;9636;47.382;8.480;2023-05-29T02:38:10;20.40;94.20
19007;DHT22;9636;47.382;8.480;2023-05-29T02:40:37;20.40;94.20
19007;DHT22;9636;47.382;8.480;2023-05-29T02:43:05;20.40;94.30
19007;DHT22;9636;47.382;8.480;2023-05-29T02:45:32;20.30;94.30
19007;DHT22;9636;47.382;8.480;2023-05-29T02:47:59;20.30;94.30
19007;DHT22;9636;47.382;8.480;2023-05-29T02:50:26;20.30;94.30
19007;DHT22;9636;47.382;8.480;2023-05-29T02:52:54;20.30;94.30
19007;DHT22;9636;47.382;8.480;2023-05-29T02:55:21;20.20;94.30
19007;DHT22;9636;47.382;8.480;2023-05-29T02:57:48;20.20;94.30
19007;DHT22;9636;47.382;8.480;2023-05-29T03:00:18;20.20;94.40
19007;DHT22;9636;47.382;8.480;2023-05-29T03:02:46;20.20;94.70
19007;DHT22;9636;47.382;8.480;2023-05-29T03:05:13;20.20;94.40
19007;DHT22;9636;47.382;8.480;2023-05-29T03:07:39;20.10;94.40
19007;DHT22;9636;47.382;8.480;2023-05-29T03:10:09;20.10;94.40
19007;DHT22;9636;47.382;8.480;2023-05-29T03:12:37;20.10;94.50
19007;DHT22;9636;47.382;8.480;2023-05-29T03:15:05;20.10;94.50
19007;DHT22;9636;47.382;8.480;2023-05-29T03:17:33;20.10;94.50
19007;DHT22;9636;47.382;8.480;2023-05-29T03:20:04;20.00;94.80
19007;DHT22;9636;47.382;8.480;2023-05-29T03:22:33;20.00;94.50
19007;DHT22;9636;47.382;8.480;2023-05-29T03:25:02;20.00;94.50
19007;DHT22;9636;47.382;8.480;2023-05-29T03:27:30;20.00;94.50
19007;DHT22;9636;47.382;8.480;2023-05-29T03:29:58;20.00;94.50
19007;DHT22;9636;47.382;8.480;2023-05-29T03:32:25;19.90;94.50
19007;DHT22;9636;47.382;8.480;2023-05-29T03:34:52;19.90;94.60
19007;DHT22;9636;47.382;8.480;2023-05-29T03:37:19;19.90;94.60
19007;DHT22;9636;47.382;8.480;2023-05-29T03:39:45;19.90;94.60
19007;DHT22;9636;47.382;8.480;2023-05-29T03:42:13;19.80;94.60
19007;DHT22;9636;47.382;8.480;2023-05-29T03:44:41;19.90;94.60
19007;DHT22;9636;47.382;8.480;2023-05-29T03:47:08;19.80;94.70
19007;DHT22;9636;47.382;8.480;2023-05-29T03:49:35;19.80;94.60
19007;DHT22;9636;47.382;8.480;2023-05-29T03:52:02;19.70;94.60
19007;DHT22;9636;47.382;8.480;2023-05-29T03:54:28;19.70;94.60
19007;DHT22;9636;47.382;8.480;2023-05-29T03:56:55;19.70;94.60
19007;DHT22;9636;47.382;8.480;2023-05-29T03:59:22;19.70;94.70
19007;DHT22;9636;47.382;8.480;2023-05-29T04:01:50;19.70;94.70
19007;DHT22;9636;47.382;8.480;2023-05-29T04:04:17;19.70;94.70
19007;DHT22;9636;47.382;8.480;2023-05-29T04:06:44;19.70;94.70
19007;DHT22;9636;47.382;8.480;2023-05-29T04:09:10;19.70;94.60
19007;DHT22;9636;47.382;8.480;2023-05-29T04:11:37;19.70;94.70
19007;DHT22;9636;47.382;8.480;2023-05-29T04:14:05;19.70;94.60
19007;DHT22;9636;47.382;8.480;2023-05-29T04:16:31;19.70;94.70
19007;DHT22;9636;47.382;8.480;2023-05-29T04:18:59;19.70;94.60
19007;DHT22;9636;47.382;8.480;2023-05-29T04:21:26;19.70;94.60
19007;DHT22;9636;47.382;8.480;2023-05-29T04:23:53;19.70;94.60
19007;DHT22;9636;47.382;8.480;2023-05-29T04:26:21;19.60;94.60
19007;DHT22;9636;47.382;8.480;2023-05-29T04:28:50;19.70;94.60
19007;DHT22;9636;47.382;8.480;2023-05-29T04:31:18;19.70;94.60
19007;DHT22;9636;47.382;8.480;2023-05-29T04:33:48;19.70;94.60
19007;DHT22;9636;47.382;8.480;2023-05-29T04:36:16;19.80;94.60
19007;DHT22;9636;47.382;8.480;2023-05-29T04:38:43;19.90;94.50
19007;DHT22;9636;47.382;8.480;2023-05-29T04:41:10;19.90;94.50
19007;DHT22;9636;47.382;8.480;2023-05-29T04:43:37;20.00;94.40
19007;DHT22;9636;47.382;8.480;2023-05-29T04:46:05;20.00;94.40
19007;DHT22;9636;47.382;8.480;2023-05-29T04:48:38;20.10;94.30
19007;DHT22;9636;47.382;8.480;2023-05-29T04:51:06;20.20;94.30
19007;DHT22;9636;47.382;8.480;2023-05-29T04:53:37;20.30;94.30
19007;DHT22;9636;47.382;8.480;2023-05-29T04:56:05;20.30;94.60
19007;DHT22;9636;47.382;8.480;2023-05-29T04:58:32;20.40;94.20
19007;DHT22;9636;47.382;8.480;2023-05-29T05:00:59;20.50;94.10
19007;DHT22;9636;47.382;8.480;2023-05-29T05:03:28;20.60;94.00
19007;DHT22;9636;47.382;8.480;2023-05-29T05:05:56;20.70;93.90
19007;DHT22;9636;47.382;8.480;2023-05-29T05:08:23;20.80;93.80
19007;DHT22;9636;47.382;8.480;2023-05-29T05:10:51;21.00;93.80
19007;DHT22;9636;47.382;8.480;2023-05-29T05:13:17;21.10;93.70
19007;DHT22;9636;47.382;8.480;2023-05-29T05:15:44;21.20;93.50
19007;DHT22;9636;47.382;8.480;2023-05-29T05:18:11;21.30;93.50
19007;DHT22;9636;47.382;8.480;2023-05-29T05:20:38;21.40;93.50
19007;DHT22;9636;47.382;8.480;2023-05-29T05:23:05;21.60;93.30
19007;DHT22;9636;47.382;8.480;2023-05-29T05:25:32;21.70;93.20
19007;DHT22;9636;47.382;8.480;2023-05-29T05:28:02;21.90;93.10
19007;DHT22;9636;47.382;8.480;2023-05-29T05:30:29;22.10;93.00
19007;DHT22;9636;47.382;8.480;2023-05-29T05:32:56;22.20;92.90
19007;DHT22;9636;47.382;8.480;2023-05-29T05:35:23;22.40;92.80
19007;DHT22;9636;47.382;8.480;2023-05-29T05:37:50;22.60;92.70
19007;DHT22;9636;47.382;8.480;2023-05-29T05:40:17;22.70;92.60
19007;DHT22;9636;47.382;8.480;2023-05-29T05:42:44;22.90;92.50
19007;DHT22;9636;47.382;8.480;2023-05-29T05:45:12;23.00;92.50
19007;DHT22;9636;47.382;8.480;2023-05-29T05:47:39;23.10;92.40
19007;DHT22;9636;47.382;8.480;2023-05-29T05:50:06;23.30;92.40
19007;DHT22;9636;47.382;8.480;2023-05-29T05:52:34;23.50;92.20
19007;DHT22;9636;47.382;8.480;2023-05-29T05:55:01;23.70;92.10
19007;DHT22;9636;47.382;8.480;2023-05-29T05:57:28;23.90;91.90
19007;DHT22;9636;47.382;8.480;2023-05-29T05:59:57;24.10;91.90
19007;DHT22;9636;47.382;8.480;2023-05-29T06:02:26;24.20;91.80
19007;DHT22;9636;47.382;8.480;2023-05-29T06:04:52;24.40;91.70
19007;DHT22;9636;47.382;8.480;2023-05-29T06:07:19;24.40;91.60
19007;DHT22;9636;47.382;8.480;2023-05-29T06:09:46;24.60;91.60
19007;DHT22;9636;47.382;8.480;2023-05-29T06:12:14;24.80;91.50
19007;DHT22;9636;47.382;8.480;2023-05-29T06:14:41;25.00;91.40
19007;DHT22;9636;47.382;8.480;2023-05-29T06:17:08;25.20;91.30
19007;DHT22;9636;47.382;8.480;2023-05-29T06:19:36;25.40;91.20
19007;DHT22;9636;47.382;8.480;2023-05-29T06:22:03;25.50;90.20
19007;DHT22;9636;47.382;8.480;2023-05-29T06:24:29;25.40;90.90
19007;DHT22;9636;47.382;8.480;2023-05-29T06:26:56;25.40;90.30
19007;DHT22;9636;47.382;8.480;2023-05-29T06:29:24;25.40;90.10
19007;DHT22;9636;47.382;8.480;2023-05-29T06:31:51;25.50;84.80
19007;DHT22;9636;47.382;8.480;2023-05-29T06:34:17;25.40;82.90
19007;DHT22;9636;47.382;8.480;2023-05-29T06:36:46;25.30;81.40
19007;DHT22;9636;47.382;8.480;2023-05-29T06:39:13;25.30;80.50
19007;DHT22;9636;47.382;8.480;2023-05-29T06:41:40;25.30;79.50
19007;DHT22;9636;47.382;8.480;2023-05-29T06:44:07;25.40;78.80
19007;DHT22;9636;47.382;8.480;2023-05-29T06:46:34;25.40;78.00
19007;DHT22;9636;47.382;8.480;2023-05-29T06:49:01;25.50;77.70
19007;DHT22;9636;47.382;8.480;2023-05-29T06:51:27;25.50;77.10
19007;DHT22;9636;47.382;8.480;2023-05-29T06:53:56;25.60;77.30
19007;DHT22;9636;47.382;8.480;2023-05-29T06:56:22;25.60;76.70
19007;DHT22;9636;47.382;8.480;2023-05-29T06:58:49;25.60;76.80
19007;DHT22;9636;47.382;8.480;2023-05-29T07:01:16;25.70;77.60
19007;DHT22;9636;47.382;8.480;2023-05-29T07:03:43;25.70;76.40
19007;DHT22;9636;47.382;8.480;2023-05-29T07:06:10;25.70;77.00
19007;DHT22;9636;47.382;8.480;2023-05-29T07:08:37;25.70;76.70
19007;DHT22;9636;47.382;8.480;2023-05-29T07:11:05;25.70;75.70
19007;DHT22;9636;47.382;8.480;2023-05-29T07:13:31;25.70;76.70
19007;DHT22;9636;47.382;8.480;2023-05-29T07:15:58;25.90;75.80
19007;DHT22;9636;47.382;8.480;2023-05-29T07:18:25;25.90;75.80
19007;DHT22;9636;47.382;8.480;2023-05-29T07:20:52;25.90;75.70
19007;DHT22;9636;47.382;8.480;2023-05-29T07:23:19;26.00;73.50
19007;DHT22;9636;47.382;8.480;2023-05-29T07:25:45;26.00;75.30
19007;DHT22;9636;47.382;8.480;2023-05-29T07:28:14;26.10;76.90
19007;DHT22;9636;47.382;8.480;2023-05-29T07:30:41;26.20;74.90
19007;DHT22;9636;47.382;8.480;2023-05-29T07:33:08;26.30;74.50
19007;DHT22;9636;47.382;8.480;2023-05-29T07:35:35;26.40;74.00
19007;DHT22;9636;47.382;8.480;2023-05-29T07:38:02;26.60;72.70
19007;DHT22;9636;47.382;8.480;2023-05-29T07:40:28;26.80;73.30
19007;DHT22;9636;47.382;8.480;2023-05-29T07:42:55;27.10;72.50
19007;DHT22;9636;47.382;8.480;2023-05-29T07:45:23;27.40;72.60
19007;DHT22;9636;47.382;8.480;2023-05-29T07:47:50;27.70;71.90
19007;DHT22;9636;47.382;8.480;2023-05-29T07:50:17;28.10;70.40
19007;DHT22;9636;47.382;8.480;2023-05-29T07:52:45;28.10;70.30
19007;DHT22;9636;47.382;8.480;2023-05-29T07:55:12;28.20;68.50
19007;DHT22;9636;47.382;8.480;2023-05-29T07:57:38;28.40;70.10
19007;DHT22;9636;47.382;8.480;2023-05-29T08:00:07;28.50;70.70
19007;DHT22;9636;47.382;8.480;2023-05-29T08:02:36;28.60;71.00
19007;DHT22;9636;47.382;8.480;2023-05-29T08:05:03;28.70;69.30
19007;DHT22;9636;47.382;8.480;2023-05-29T08:07:30;28.90;68.70
19007;DHT22;9636;47.382;8.480;2023-05-29T08:09:57;29.10;68.70
19007;DHT22;9636;47.382;8.480;2023-05-29T08:12:24;29.10;69.30
19007;DHT22;9636;47.382;8.480;2023-05-29T08:14:51;29.00;69.10
19007;DHT22;9636;47.382;8.480;2023-05-29T08:17:18;28.80;68.80
19007;DHT22;9636;47.382;8.480;2023-05-29T08:19:46;28.70;68.50
19007;DHT22;9636;47.382;8.480;2023-05-29T08:22:12;28.50;67.90
19007;DHT22;9636;47.382;8.480;2023-05-29T08:24:40;28.50;67.60
19007;DHT22;9636;47.382;8.480;2023-05-29T08:27:07;28.40;70.10
19007;DHT22;9636;47.382;8.480;2023-05-29T08:29:33;28.50;71.30
19007;DHT22;9636;47.382;8.480;2023-05-29T08:32:01;28.40;71.30
19007;DHT22;9636;47.382;8.480;2023-05-29T08:34:27;28.40;71.10
19007;DHT22;9636;47.382;8.480;2023-05-29T08:36:55;28.40;71.10
19007;DHT22;9636;47.382;8.480;2023-05-29T08:39:22;28.40;72.30
19007;DHT22;9636;47.382;8.480;2023-05-29T08:41:50;28.40;72.20
19007;DHT22;9636;47.382;8.480;2023-05-29T08:44:18;28.40;73.00
19007;DHT22;9636;47.382;8.480;2023-05-29T08:46:47;28.40;72.80
19007;DHT22;9636;47.382;8.480;2023-05-29T08:49:16;28.40;73.20
19007;DHT22;9636;47.382;8.480;2023-05-29T08:51:45;28.40;72.40
19007;DHT22;9636;47.382;8.480;2023-05-29T08:54:17;28.40;73.10
19007;DHT22;9636;47.382;8.480;2023-05-29T08:56:43;28.40;72.90
19007;DHT22;9636;47.382;8.480;2023-05-29T08:59:10;28.30;73.60
19007;DHT22;9636;47.382;8.480;2023-05-29T09:01:37;28.30;73.20
19007;DHT22;9636;47.382;8.480;2023-05-29T09:04:04;28.30;72.90
19007;DHT22;9636;47.382;8.480;2023-05-29T09:06:30;28.30;72.90
19007;DHT22;9636;47.382;8.480;2023-05-29T09:08:57;28.20;73.60
19007;DHT22;9636;47.382;8.480;2023-05-29T09:11:25;28.20;73.20
19007;DHT22;9636;47.382;8.480;2023-05-29T09:13:52;28.20;72.60
19007;DHT22;9636;47.382;8.480;2023-05-29T09:16:19;28.30;71.90
19007;DHT22;9636;47.382;8.480;2023-05-29T09:18:47;28.30;71.70
19007;DHT22;9636;47.382;8.480;2023-05-29T09:21:24;28.30;70.30
19007;DHT22;9636;47.382;8.480;2023-05-29T09:23:51;28.30;69.90
19007;DHT22;9636;47.382;8.480;2023-05-29T09:26:18;28.40;69.90
19007;DHT22;9636;47.382;8.480;2023-05-29T09:28:48;28.40;72.00
19007;DHT22;9636;47.382;8.480;2023-05-29T09:31:15;28.30;72.10
19007;DHT22;9636;47.382;8.480;2023-05-29T09:33:47;28.30;73.90
19007;DHT22;9636;47.382;8.480;2023-05-29T09:36:19;28.40;72.20
19007;DHT22;9636;47.382;8.480;2023-05-29T09:38:46;28.30;72.00
19007;DHT22;9636;47.382;8.480;2023-05-29T09:41:12;28.40;73.80
19007;DHT22;9636;47.382;8.480;2023-05-29T09:43:40;28.40;74.60
19007;DHT22;9636;47.382;8.480;2023-05-29T09:46:09;28.40;72.90
19007;DHT22;9636;47.382;8.480;2023-05-29T09:48:42;28.40;72.90
19007;DHT22;9636;47.382;8.480;2023-05-29T09:51:11;28.50;73.70
19007;DHT22;9636;47.382;8.480;2023-05-29T09:53:45;28.50;73.90
19007;DHT22;9636;47.382;8.480;2023-05-29T09:56:12;28.50;72.80
19007;DHT22;9636;47.382;8.480;2023-05-29T09:58:40;28.50;73.50
19007;DHT22;9636;47.382;8.480;2023-05-29T10:01:12;28.50;73.10
19007;DHT22;9636;47.382;8.480;2023-05-29T10:03:39;28.50;74.20
19007;DHT22;9636;47.382;8.480;2023-05-29T10:06:06;28.60;73.40
19007;DHT22;9636;47.382;8.480;2023-05-29T10:08:34;28.70;72.50
19007;DHT22;9636;47.382;8.480;2023-05-29T10:11:03;28.80;73.20
19007;DHT22;9636;47.382;8.480;2023-05-29T10:13:35;28.80;72.90
19007;DHT22;9636;47.382;8.480;2023-05-29T10:16:03;28.80;73.00
19007;DHT22;9636;47.382;8.480;2023-05-29T10:18:32;28.90;70.60
19007;DHT22;9636;47.382;8.480;2023-05-29T10:21:00;28.80;71.30
19007;DHT22;9636;47.382;8.480;2023-05-29T10:23:26;28.80;70.20
19007;DHT22;9636;47.382;8.480;2023-05-29T10:25:58;28.90;71.10
19007;DHT22;9636;47.382;8.480;2023-05-29T10:28:27;29.00;71.10
19007;DHT22;9636;47.382;8.480;2023-05-29T10:30:54;29.00;70.80
19007;DHT22;9636;47.382;8.480;2023-05-29T10:33:26;29.10;70.40
19007;DHT22;9636;47.382;8.480;2023-05-29T10:35:59;29.10;70.60
19007;DHT22;9636;47.382;8.480;2023-05-29T10:38:27;29.00;71.10
19007;DHT22;9636;47.382;8.480;2023-05-29T10:40:54;29.10;72.20
19007;DHT22;9636;47.382;8.480;2023-05-29T10:43:29;29.20;72.30
19007;DHT22;9636;47.382;8.480;2023-05-29T10:45:56;29.20;70.80
19007;DHT22;9636;47.382;8.480;2023-05-29T10:48:39;29.20;71.00
19007;DHT22;9636;47.382;8.480;2023-05-29T10:51:07;29.30;70.90
19007;DHT22;9636;47.382;8.480;2023-05-29T10:53:34;29.30;71.00
19007;DHT22;9636;47.382;8.480;2023-05-29T10:56:07;29.30;71.40
19007;DHT22;9636;47.382;8.480;2023-05-29T10:58:34;29.20;73.50
19007;DHT22;9636;47.382;8.480;2023-05-29T11:01:01;29.30;73.10
19007;DHT22;9636;47.382;8.480;2023-05-29T11:03:29;29.20;73.10
19007;DHT22;9636;47.382;8.480;2023-05-29T11:05:56;29.20;71.70
19007;DHT22;9636;47.382;8.480;2023-05-29T11:08:29;29.30;73.20
19007;DHT22;9636;47.382;8.480;2023-05-29T11:10:59;29.30;72.70
19007;DHT22;9636;47.382;8.480;2023-05-29T11:13:27;29.40;72.20
19007;DHT22;9636;47.382;8.480;2023-05-29T11:16:12;29.40;72.60
19007;DHT22;9636;47.382;8.480;2023-05-29T11:18:41;29.50;71.40
19007;DHT22;9636;47.382;8.480;2023-05-29T11:21:21;29.60;70.80
19007;DHT22;9636;47.382;8.480;2023-05-29T11:23:52;29.70;71.30
19007;DHT22;9636;47.382;8.480;2023-05-29T11:26:22;29.70;70.10
19007;DHT22;9636;47.382;8.480;2023-05-29T11:28:49;29.70;68.10
19007;DHT22;9636;47.382;8.480;2023-05-29T11:31:17;29.70;68.10
19007;DHT22;9636;47.382;8.480;2023-05-29T11:33:48;29.70;68.90
19007;DHT22;9636;47.382;8.480;2023-05-29T11:36:17;29.70;69.30
19007;DHT22;9636;47.382;8.480;2023-05-29T11:38:44;29.70;69.70
19007;DHT22;9636;47.382;8.480;2023-05-29T11:41:12;29.70;69.40
19007;DHT22;9636;47.382;8.480;2023-05-29T11:43:39;29.70;70.10
19007;DHT22;9636;47.382;8.480;2023-05-29T11:46:21;29.80;70.90
19007;DHT22;9636;47.382;8.480;2023-05-29T11:48:48;29.80;70.00
19007;DHT22;9636;47.382;8.480;2023-05-29T11:51:15;29.80;68.60
19007;DHT22;9636;47.382;8.480;2023-05-29T11:53:42;29.80;68.40
19007;DHT22;9636;47.382;8.480;2023-05-29T11:56:09;29.90;68.20
19007;DHT22;9636;47.382;8.480;2023-05-29T11:58:38;29.90;68.50
19007;DHT22;9636;47.382;8.480;2023-05-29T12:01:06;29.90;68.60
19007;DHT22;9636;47.382;8.480;2023-05-29T12:03:37;29.90;67.30
19007;DHT22;9636;47.382;8.480;2023-05-29T12:06:05;30.00;68.60
19007;DHT22;9636;47.382;8.480;2023-05-29T12:08:33;29.90;68.70
19007;DHT22;9636;47.382;8.480;2023-05-29T12:11:00;29.90;69.80
19007;DHT22;9636;47.382;8.480;2023-05-29T12:13:27;30.00;68.60
19007;DHT22;9636;47.382;8.480;2023-05-29T12:15:57;29.90;68.80
19007;DHT22;9636;47.382;8.480;2023-05-29T12:18:24;29.90;68.50
19007;DHT22;9636;47.382;8.480;2023-05-29T12:20:57;29.90;69.30
19007;DHT22;9636;47.382;8.480;2023-05-29T12:23:24;30.00;68.50
19007;DHT22;9636;47.382;8.480;2023-05-29T12:25:51;29.90;68.00
19007;DHT22;9636;47.382;8.480;2023-05-29T12:28:20;29.90;68.00
19007;DHT22;9636;47.382;8.480;2023-05-29T12:30:47;29.80;68.20
19007;DHT22;9636;47.382;8.480;2023-05-29T12:33:27;29.90;68.70
19007;DHT22;9636;47.382;8.480;2023-05-29T12:35:54;29.90;69.80
19007;DHT22;9636;47.382;8.480;2023-05-29T12:38:22;29.90;69.00
19007;DHT22;9636;47.382;8.480;2023-05-29T12:40:49;29.90;67.20
19007;DHT22;9636;47.382;8.480;2023-05-29T12:43:17;29.90;67.10
19007;DHT22;9636;47.382;8.480;2023-05-29T12:45:44;29.90;67.00
19007;DHT22;9636;47.382;8.480;2023-05-29T12:48:11;30.00;66.00
19007;DHT22;9636;47.382;8.480;2023-05-29T12:50:40;30.00;68.00
19007;DHT22;9636;47.382;8.480;2023-05-29T12:53:08;30.00;67.60
19007;DHT22;9636;47.382;8.480;2023-05-29T12:55:36;30.00;67.40
19007;DHT22;9636;47.382;8.480;2023-05-29T12:58:04;29.90;67.90
19007;DHT22;9636;47.382;8.480;2023-05-29T13:00:33;29.90;67.70
19007;DHT22;9636;47.382;8.480;2023-05-29T13:03:00;29.90;66.20
19007;DHT22;9636;47.382;8.480;2023-05-29T13:05:27;29.90;67.40
19007;DHT22;9636;47.382;8.480;2023-05-29T13:07:57;29.80;67.70
19007;DHT22;9636;47.382;8.480;2023-05-29T13:10:24;29.80;68.00
19007;DHT22;9636;47.382;8.480;2023-05-29T13:12:52;29.80;67.30
19007;DHT22;9636;47.382;8.480;2023-05-29T13:15:21;29.70;66.90
19007;DHT22;9636;47.382;8.480;2023-05-29T13:17:49;29.80;68.40
19007;DHT22;9636;47.382;8.480;2023-05-29T13:20:16;29.80;67.40
19007;DHT22;9636;47.382;8.480;2023-05-29T13:22:45;29.70;66.50
19007;DHT22;9636;47.382;8.480;2023-05-29T13:25:15;29.70;66.10
19007;DHT22;9636;47.382;8.480;2023-05-29T13:27:44;29.70;65.90
19007;DHT22;9636;47.382;8.480;2023-05-29T13:30:12;29.60;65.30
19007;DHT22;9636;47.382;8.480;2023-05-29T13:32:39;29.50;64.70
19007;DHT22;9636;47.382;8.480;2023-05-29T13:35:07;29.50;64.90
19007;DHT22;9636;47.382;8.480;2023-05-29T13:37:35;29.60;62.90
19007;DHT22;9636;47.382;8.480;2023-05-29T13:40:02;29.60;65.80
19007;DHT22;9636;47.382;8.480;2023-05-29T13:42:31;29.60;66.10
19007;DHT22;9636;47.382;8.480;2023-05-29T13:44:58;29.50;65.50
19007;DHT22;9636;47.382;8.480;2023-05-29T13:47:25;29.50;64.70
19007;DHT22;9636;47.382;8.480;2023-05-29T13:49:54;29.50;64.50
19007;DHT22;9636;47.382;8.480;2023-05-29T13:52:21;29.40;63.90
19007;DHT22;9636;47.382;8.480;2023-05-29T13:54:48;29.40;65.40
19007;DHT22;9636;47.382;8.480;2023-05-29T13:57:15;29.40;65.30
19007;DHT22;9636;47.382;8.480;2023-05-29T13:59:43;29.40;64.60
19007;DHT22;9636;47.382;8.480;2023-05-29T14:02:10;29.40;64.00
19007;DHT22;9636;47.382;8.480;2023-05-29T14:04:37;29.40;63.10
19007;DHT22;9636;47.382;8.480;2023-05-29T14:07:05;29.40;64.60
19007;DHT22;9636;47.382;8.480;2023-05-29T14:09:32;29.30;65.10
19007;DHT22;9636;47.382;8.480;2023-05-29T14:11:59;29.30;63.70
19007;DHT22;9636;47.382;8.480;2023-05-29T14:14:27;29.30;64.10
19007;DHT22;9636;47.382;8.480;2023-05-29T14:16:55;29.30;63.00
19007;DHT22;9636;47.382;8.480;2023-05-29T14:19:22;29.20;63.40
19007;DHT22;9636;47.382;8.480;2023-05-29T14:21:49;29.20;63.40
19007;DHT22;9636;47.382;8.480;2023-05-29T14:24:16;29.20;64.40
19007;DHT22;9636;47.382;8.480;2023-05-29T14:26:43;29.10;63.70
19007;DHT22;9636;47.382;8.480;2023-05-29T14:29:12;29.10;63.00
19007;DHT22;9636;47.382;8.480;2023-05-29T14:31:39;29.00;63.30
19007;DHT22;9636;47.382;8.480;2023-05-29T14:34:08;29.00;63.30
19007;DHT22;9636;47.382;8.480;2023-05-29T14:36:35;28.90;62.50
19007;DHT22;9636;47.382;8.480;2023-05-29T14:39:02;29.00;62.80
19007;DHT22;9636;47.382;8.480;2023-05-29T14:41:30;29.00;63.20
19007;DHT22;9636;47.382;8.480;2023-05-29T14:43:57;28.90;63.30
19007;DHT22;9636;47.382;8.480;2023-05-29T14:46:24;28.70;62.80
19007;DHT22;9636;47.382;8.480;2023-05-29T14:48:52;28.40;62.10
19007;DHT22;9636;47.382;8.480;2023-05-29T14:51:21;28.20;63.20
19007;DHT22;9636;47.382;8.480;2023-05-29T14:53:49;28.00;62.00
19007;DHT22;9636;47.382;8.480;2023-05-29T14:56:16;27.70;62.30
19007;DHT22;9636;47.382;8.480;2023-05-29T14:58:43;27.60;62.60
19007;DHT22;9636;47.382;8.480;2023-05-29T15:01:10;27.80;62.30
19007;DHT22;9636;47.382;8.480;2023-05-29T15:03:37;27.50;62.80
19007;DHT22;9636;47.382;8.480;2023-05-29T15:06:04;27.50;63.00
19007;DHT22;9636;47.382;8.480;2023-05-29T15:08:33;27.60;62.00
19007;DHT22;9636;47.382;8.480;2023-05-29T15:11:00;27.60;62.80
19007;DHT22;9636;47.382;8.480;2023-05-29T15:13:28;27.80;61.60
19007;DHT22;9636;47.382;8.480;2023-05-29T15:15:55;27.70;62.30
19007;DHT22;9636;47.382;8.480;2023-05-29T15:18:25;27.40;64.00
19007;DHT22;9636;47.382;8.480;2023-05-29T15:20:51;27.60;61.80
19007;DHT22;9636;47.382;8.480;2023-05-29T15:23:19;27.60;62.60
19007;DHT22;9636;47.382;8.480;2023-05-29T15:25:49;27.70;63.10
19007;DHT22;9636;47.382;8.480;2023-05-29T15:28:16;27.80;60.90
19007;DHT22;9636;47.382;8.480;2023-05-29T15:30:43;27.70;62.50
19007;DHT22;9636;47.382;8.480;2023-05-29T15:33:10;27.70;63.20
19007;DHT22;9636;47.382;8.480;2023-05-29T15:35:37;27.50;64.50
19007;DHT22;9636;47.382;8.480;2023-05-29T15:38:04;27.40;64.00
19007;DHT22;9636;47.382;8.480;2023-05-29T15:40:31;27.40;64.60
19007;DHT22;9636;47.382;8.480;2023-05-29T15:42:59;27.10;65.10
19007;DHT22;9636;47.382;8.480;2023-05-29T15:45:26;27.10;64.50
19007;DHT22;9636;47.382;8.480;2023-05-29T15:47:53;27.20;63.30
19007;DHT22;9636;47.382;8.480;2023-05-29T15:50:20;27.30;62.10